Date,TemperatureHighF,TemperatureAvgF,TemperatureLowF,DewpointHighF,DewpointAvgF,DewpointLowF,HumidityHigh,HumidityAvg,HumidityLow,PressureMaxIn,PressureMinIn,WindSpeedMaxMPH,WindSpeedAvgMPH,GustSpeedMaxMPH,PrecipitationSumIn
2013-1-1,58.2,53.2,46.2,51.2,44.5,38.0,95,73,57,30.10,30.00,4,1,7,0.00
2013-1-2,59.7,52.6,48.0,51.3,48.2,45.3,96,86,62,30.24,30.09,2,0,4,0.01
2013-1-3,59.4,52.4,45.6,45.3,41.5,35.3,93,69,43,30.30,30.17,5,1,8,0.01
2013-1-4,60.5,52.1,44.7,49.5,41.2,37.1,94,68,45,30.17,29.95,5,1,9,0.06
2013-1-5,53.3,49.2,47.2,49.4,47.3,44.7,96,93,82,29.95,29.83,6,3,12,0.65
2013-1-6,51.5,49.2,46.6,44.9,42.7,41.1,90,78,72,29.86,29.70,9,6,20,0.00
2013-1-7,47.8,44.9,42.7,44.4,42.6,40.9,96,92,81,29.91,29.53,17,10,28,1.54
2013-1-8,48.8,44.3,39.5,45.3,42.3,38.1,96,93,86,29.92,29.73,12,8,22,2.48
2013-1-9,40.8,37.9,33.2,38.9,36.1,32.2,96,93,83,30.01,29.78,12,6,23,1.19
2013-1-10,40.1,35.8,33.4,38.8,34.6,32.1,97,95,90,30.29,30.01,4,1,8,0.64
2013-1-11,46.7,41.4,37.4,40.2,37.2,35.3,95,85,72,30.38,30.28,4,1,7,0.12
2013-1-12,46.7,42.5,36.7,35.4,32.7,29.7,88,69,55,30.32,30.20,7,2,11,0.00
2013-1-13,53.3,45.4,36.7,44.1,34.9,28.4,93,68,45,30.23,30.15,4,1,6,0.00
2013-1-14,55.7,47.2,39.4,39.0,34.8,30.1,93,65,40,30.30,30.22,4,1,9,0.01
2013-1-15,55.4,49.8,44.5,30.9,28.3,25.5,55,44,37,30.29,30.21,12,5,19,0.00
2013-1-16,57.8,51.6,44.8,33.1,29.0,24.6,48,42,37,30.22,30.05,8,3,13,0.00
2013-1-17,64.4,55.8,49.6,50.1,39.1,28.0,92,56,26,30.08,30.00,4,1,11,0.00
2013-1-18,64.1,53.6,46.3,49.3,40.6,34.3,87,64,39,30.01,29.89,7,1,11,0.00
2013-1-19,60.9,52.1,44.9,45.1,39.0,27.7,87,63,40,30.09,29.93,4,1,11,0.00
2013-1-20,61.0,54.0,48.6,40.6,35.8,30.9,63,51,40,30.17,30.08,4,1,8,0.00
2013-1-21,58.0,56.7,54.2,30.6,28.1,25.2,38,33,30,30.05,30.02,2,0,3,0.00
2013-1-22,74.0,60.7,52.3,50.9,35.9,25.6,94,44,26,30.02,29.91,9,3,14,0.00
2013-1-23,58.8,52.8,47.7,50.6,47.9,45.5,94,84,64,30.12,29.99,5,1,10,0.00
2013-1-24,60.7,54.3,45.6,46.6,41.8,33.3,93,66,40,30.09,29.88,5,1,10,0.00
2013-1-25,65.6,60.5,54.3,44.0,36.3,25.7,64,42,23,29.92,29.82,6,2,13,0.00
2013-1-26,68.8,58.4,48.9,50.6,44.0,37.9,76,60,44,29.94,29.83,4,1,7,0.00
2013-1-27,60.8,55.0,50.4,50.3,45.4,33.7,92,72,38,29.94,29.82,5,1,10,0.00
2013-1-28,59.5,51.5,44.4,47.4,43.9,39.5,92,76,54,29.91,29.75,8,2,17,0.02
2013-1-29,49.3,46.8,43.6,48.2,45.7,42.3,97,96,93,30.00,29.86,9,3,14,0.40
2013-1-30,53.9,47.7,43.9,47.3,44.4,41.0,95,89,70,29.99,29.75,5,2,13,0.20
2013-1-31,46.1,42.2,36.4,45.3,41.1,35.4,97,96,91,29.86,29.68,10,4,17,1.76
2013-2-1,50.1,45.9,43.1,46.3,44.2,42.0,97,94,79,29.93,29.76,9,5,16,0.99
2013-2-2,54.1,48.6,44.5,48.2,45.8,41.5,97,90,77,30.26,29.93,7,3,15,0.13
2013-2-3,61.3,51.3,42.0,48.0,41.4,28.8,94,72,32,30.33,30.25,5,1,8,0.01
2013-2-4,64.3,56.8,47.6,42.6,40.0,36.9,74,55,41,30.25,30.04,7,2,11,0.00
2013-2-5,63.3,58.6,53.2,41.5,37.0,33.4,57,45,34,30.04,29.83,4,1,7,0.00
2013-2-6,60.0,53.4,48.6,51.3,45.3,37.6,95,76,45,29.98,29.72,9,4,20,0.11
2013-2-7,58.4,51.8,48.0,47.6,44.0,41.3,83,75,55,30.12,29.98,6,1,9,0.00
2013-2-8,63.2,53.7,47.8,49.4,43.8,36.6,85,70,51,30.03,29.91,10,2,15,0.00
2013-2-9,63.5,54.2,45.9,47.8,41.4,33.7,84,64,35,30.07,29.98,4,1,8,0.00
2013-2-10,66.0,53.3,45.9,52.5,44.8,37.5,93,75,38,30.03,29.92,5,1,10,0.00
2013-2-11,56.5,50.5,46.3,48.9,44.4,38.5,93,81,58,30.02,29.93,7,3,12,0.01
2013-2-12,54.7,49.1,44.7,47.1,44.2,40.1,95,83,70,30.11,30.00,4,1,7,0.01
2013-2-13,61.2,53.0,43.7,41.6,37.8,32.9,86,59,35,30.14,29.97,9,4,15,0.00
2013-2-14,64.3,56.9,52.7,41.9,38.2,34.8,64,50,36,29.98,29.87,7,2,9,0.00
2013-2-15,58.1,51.4,47.1,48.5,36.8,28.2,88,59,35,30.06,29.87,10,5,18,0.00
2013-2-16,54.2,49.0,44.8,47.3,42.3,34.8,93,78,62,30.12,30.04,6,3,13,0.00
2013-2-17,57.0,49.6,46.1,47.1,45.2,41.6,94,85,60,30.05,29.97,5,2,10,0.01
2013-2-18,58.1,49.1,40.6,47.5,43.0,35.3,96,82,46,30.01,29.95,4,1,9,0.03
2013-2-19,54.4,49.7,46.1,47.4,44.8,40.6,94,84,61,30.09,30.00,4,1,10,0.00
2013-2-20,59.3,50.6,42.4,44.8,42.2,38.7,92,74,51,30.14,30.06,4,1,7,0.01
2013-2-21,62.7,54.0,42.8,40.1,35.3,29.9,73,51,34,30.15,29.96,6,2,9,0.00
2013-2-22,67.9,60.3,52.9,38.9,33.3,24.8,52,37,22,29.95,29.71,7,2,11,0.00
2013-2-23,58.9,54.4,51.1,50.4,46.4,39.0,91,75,53,30.10,29.82,9,4,15,0.00
2013-2-24,61.9,54.7,50.4,50.6,49.1,46.7,93,82,59,30.22,30.10,5,1,9,0.00
2013-2-25,68.3,59.7,49.9,49.0,41.7,34.6,89,55,31,30.21,30.08,9,3,13,0.01
2013-2-26,72.0,63.7,53.0,42.3,35.6,30.2,53,36,25,30.08,29.94,5,1,7,0.00
2013-2-27,69.6,60.0,51.9,50.9,40.7,30.1,90,51,27,29.96,29.90,5,1,11,0.00
2013-2-28,60.2,52.6,48.2,50.0,46.2,42.9,92,79,62,30.01,29.94,10,4,16,0.00
2013-3-1,58.0,50.6,47.1,46.8,45.1,42.3,92,82,62,30.02,29.96,6,2,11,0.00
2013-3-2,65.1,54.6,44.0,46.1,41.7,27.3,92,65,27,30.04,29.95,5,1,7,0.00
2013-3-3,77.3,65.8,54.3,50.8,33.9,21.5,88,33,13,29.94,29.77,10,3,22,0.00
2013-3-4,58.4,53.6,50.2,50.8,48.0,44.8,92,82,63,29.98,29.80,8,5,15,0.00
2013-3-5,57.3,51.2,48.5,48.3,46.3,42.6,93,84,58,30.09,29.94,8,4,16,0.01
2013-3-6,55.9,49.4,42.3,47.1,39.6,33.3,94,71,44,30.18,30.07,5,2,10,0.00
2013-3-7,58.9,51.2,42.2,36.3,21.3,14.9,79,34,19,30.21,30.01,10,5,15,0.00
2013-3-8,68.5,58.8,50.7,27.9,20.4,14.6,30,23,17,30.02,29.75,8,2,13,0.00
2013-3-9,63.1,56.3,49.4,51.4,43.8,28.0,93,67,27,29.94,29.74,7,4,11,0.00
2013-3-10,63.2,54.7,45.3,47.2,43.8,39.6,92,68,50,30.00,29.93,7,2,15,0.01
2013-3-11,73.0,62.6,51.4,46.2,42.9,38.3,74,51,33,30.02,29.95,6,2,11,0.00
2013-3-12,81.4,72.3,62.7,42.9,38.0,30.5,46,30,16,29.99,29.82,6,2,11,0.00
2013-3-13,78.6,70.7,60.3,53.5,34.0,26.1,65,27,16,29.85,29.79,7,2,14,0.00
2013-3-14,84.1,69.8,57.7,46.9,40.1,32.6,45,35,16,29.88,29.81,3,1,6,0.00
2013-3-15,86.5,76.7,67.6,51.1,40.1,28.4,42,27,16,29.82,29.66,8,2,17,0.00
2013-3-16,69.6,56.3,50.0,56.2,48.6,43.2,95,76,45,29.91,29.69,8,4,15,0.01
2013-3-17,52.4,49.5,47.8,49.1,45.7,43.2,93,87,76,30.04,29.89,8,4,16,0.10
2013-3-18,60.2,51.0,46.7,44.2,42.1,39.5,90,73,49,30.10,29.98,5,2,10,0.01
2013-3-19,66.1,54.0,47.0,47.4,40.5,31.9,80,62,30,30.00,29.86,7,1,10,0.00
2013-3-20,69.2,57.7,48.0,51.1,42.6,32.4,82,60,28,29.99,29.88,5,1,9,0.00
2013-3-21,73.9,62.2,49.8,43.4,36.9,27.9,70,41,19,30.00,29.80,5,1,9,0.00
2013-3-22,80.2,63.0,51.4,54.0,41.2,25.2,89,52,14,29.80,29.59,13,6,21,0.00
2013-3-23,57.5,52.2,49.2,48.7,47.3,45.5,92,84,69,29.94,29.77,10,6,18,0.00
2013-3-24,62.4,53.0,47.3,46.1,43.1,40.2,88,70,47,30.07,29.92,6,2,11,0.00
2013-3-25,73.5,60.1,46.2,44.5,38.3,27.2,86,50,21,30.08,29.90,7,2,12,0.00
2013-3-26,81.8,67.8,53.9,51.1,32.4,18.7,89,32,10,29.90,29.66,9,3,18,0.00
2013-3-27,64.3,55.6,50.5,50.7,48.9,45.4,93,79,51,30.00,29.76,7,4,15,0.00
2013-3-28,70.4,58.5,47.4,50.7,45.2,39.2,93,64,36,30.03,29.96,5,1,8,0.01
2013-3-29,73.7,62.4,52.2,44.6,35.9,29.1,59,39,24,30.02,29.93,4,1,10,0.00
2013-3-30,77.6,65.6,53.1,40.7,37.4,33.2,55,37,22,29.96,29.82,6,1,11,0.00
2013-3-31,82.9,71.2,62.2,46.9,41.3,31.3,46,35,17,29.85,29.78,6,2,10,0.00
2013-4-1,80.5,69.4,57.0,54.6,44.3,32.9,84,44,19,29.91,29.78,6,2,14,0.00
2013-4-2,71.1,60.0,53.3,52.8,45.8,27.6,94,63,33,29.95,29.87,8,3,14,0.00
2013-4-3,74.7,62.7,50.0,41.4,30.9,23.2,45,31,17,29.92,29.75,5,1,10,0.00
2013-4-4,68.9,59.1,52.0,52.3,43.3,24.7,89,60,20,29.88,29.63,13,6,21,0.00
2013-4-5,58.1,53.3,49.4,51.9,50.0,47.3,94,89,76,30.01,29.82,9,5,16,0.38
2013-4-6,72.4,60.1,49.3,55.9,51.4,45.3,96,75,49,30.04,29.93,3,1,5,0.01
2013-4-7,84.7,69.3,55.2,54.5,41.8,29.5,87,44,16,29.93,29.76,7,1,14,0.00
2013-4-8,73.5,64.3,53.3,50.5,39.5,25.9,90,44,18,29.90,29.71,10,4,21,0.00
2013-4-9,61.1,54.7,51.4,51.2,49.1,46.4,93,82,61,29.98,29.86,9,5,14,0.00
2013-4-10,60.6,54.2,51.1,51.9,48.9,44.6,94,83,59,30.01,29.93,7,3,15,0.06
2013-4-11,63.8,55.1,48.8,51.7,47.4,40.3,92,77,44,30.01,29.88,5,1,10,0.00
2013-4-12,68.5,57.0,45.7,53.3,47.5,34.9,93,73,39,29.98,29.90,5,1,8,0.01
2013-4-13,69.4,57.6,50.5,56.0,52.0,48.5,93,83,61,30.08,29.96,5,1,10,0.01
2013-4-14,75.1,61.7,51.0,54.2,48.1,40.6,93,64,35,30.09,29.96,4,1,8,0.00
2013-4-15,75.4,62.8,51.4,50.1,39.1,33.5,60,43,23,29.96,29.76,5,1,10,0.00
2013-4-16,60.5,55.7,52.2,50.7,47.3,38.7,90,74,51,29.83,29.72,11,5,22,0.00
2013-4-17,56.7,53.1,50.5,51.1,49.3,47.6,93,87,74,29.89,29.79,11,4,19,0.12
2013-4-18,62.4,55.1,51.5,51.1,49.1,44.7,93,81,62,29.89,29.82,5,1,12,0.02
2013-4-19,61.2,54.4,49.5,51.1,45.6,39.8,82,72,59,29.93,29.82,8,2,14,0.00
2013-4-20,57.6,50.9,47.5,48.5,44.6,37.8,94,80,49,29.90,29.83,11,4,25,0.18
2013-4-21,54.9,51.0,49.2,51.7,49.2,47.8,96,93,84,29.93,29.86,7,3,14,0.33
2013-4-22,58.0,52.9,50.0,50.7,48.7,45.9,96,86,72,29.98,29.86,7,3,12,0.00
2013-4-23,68.7,57.1,49.4,54.2,50.0,46.1,96,79,48,30.09,29.96,3,1,9,0.01
2013-4-24,77.1,63.0,50.3,50.8,44.3,28.8,91,55,18,30.13,30.01,7,1,11,0.01
2013-4-25,78.4,68.4,58.8,47.6,33.9,20.7,65,31,12,30.03,29.91,9,2,14,0.00
2013-4-26,82.0,71.9,63.8,35.8,24.3,17.0,30,18,11,29.92,29.77,9,3,13,0.00
2013-4-27,84.3,75.6,67.6,33.0,24.7,17.9,19,15,12,29.83,29.76,9,4,16,0.00
2013-4-28,84.6,76.8,70.3,41.9,26.0,11.4,26,16,9,29.88,29.80,8,3,14,0.00
2013-4-29,84.2,76.7,67.3,29.7,19.1,12.4,18,12,8,29.92,29.82,8,2,12,0.00
2013-4-30,88.5,79.3,70.0,43.0,28.0,20.5,29,16,11,29.87,29.76,5,2,10,0.00
2013-5-1,88.0,78.3,68.6,55.2,35.3,19.7,36,22,12,29.81,29.70,8,2,13,0.00
2013-5-2,84.8,76.8,69.2,54.7,44.1,38.7,38,32,21,29.75,29.69,6,1,10,0.00
2013-5-3,84.3,75.3,65.3,55.3,46.1,37.2,53,37,20,29.76,29.67,5,1,9,0.00
2013-5-4,85.4,75.6,64.2,51.7,39.3,22.8,52,30,15,29.83,29.74,6,2,20,0.00
2013-5-5,82.8,75.1,68.4,48.3,32.7,20.6,45,23,13,29.83,29.78,6,2,12,0.00
2013-5-6,79.6,71.3,62.8,54.4,48.3,43.1,62,45,31,29.83,29.75,6,2,10,0.00
2013-5-7,82.5,71.9,63.3,60.9,52.9,41.3,77,53,35,29.82,29.74,5,2,10,0.00
2013-5-8,83.3,73.8,62.9,53.7,46.2,39.0,51,38,25,29.80,29.73,5,1,10,0.00
2013-5-9,81.0,70.1,63.1,61.8,51.8,38.2,86,54,32,29.82,29.73,6,2,11,0.00
2013-5-10,80.5,70.1,59.4,62.4,54.2,40.3,89,61,28,29.82,29.72,6,1,11,0.00
2013-5-11,75.7,67.3,61.1,60.1,52.5,45.7,91,60,43,29.80,29.74,7,3,17,0.00
2013-5-12,70.6,62.2,56.9,55.5,51.5,44.8,90,69,51,29.87,29.76,6,2,16,0.00
2013-5-13,78.1,66.6,55.9,59.9,50.3,44.2,91,59,32,29.86,29.67,9,2,17,0.06
2013-5-14,72.5,62.9,57.1,56.6,48.8,37.9,89,63,29,29.78,29.72,11,4,22,0.00
2013-5-15,66.5,59.7,54.5,54.8,51.6,46.4,91,76,54,29.88,29.73,9,3,14,0.01
2013-5-16,70.6,61.7,56.4,56.9,54.5,53.0,92,78,59,29.98,29.88,5,2,14,0.00
2013-5-17,77.4,66.3,55.9,61.4,53.1,46.6,87,64,41,30.03,29.95,5,1,9,0.00
2013-5-18,87.4,74.2,61.5,60.2,48.2,37.3,62,41,21,30.02,29.88,5,1,8,0.00
2013-5-19,85.0,77.5,70.0,55.7,47.7,43.6,46,35,27,29.88,29.72,5,1,8,0.00
2013-5-20,77.9,70.2,61.4,60.0,49.4,30.8,90,51,24,29.77,29.68,8,3,15,0.00
2013-5-21,81.1,70.1,59.1,60.6,55.8,49.4,94,63,36,29.84,29.76,5,2,11,0.00
2013-5-22,86.3,74.3,63.2,54.8,48.5,42.9,58,42,24,29.87,29.80,5,1,11,0.00
2013-5-23,90.3,76.9,63.7,57.8,46.0,36.9,51,35,17,29.87,29.79,4,1,7,0.00
2013-5-24,94.7,80.7,67.5,59.4,43.3,15.7,44,28,10,29.84,29.77,5,1,9,0.00
2013-5-25,80.9,71.4,61.2,62.4,54.8,17.4,90,59,10,29.86,29.78,6,2,11,0.00
2013-5-26,75.3,64.8,57.8,58.1,55.1,49.1,91,73,41,29.90,29.83,9,3,14,0.00
2013-5-27,76.6,66.4,57.4,59.3,55.5,48.1,92,71,38,29.95,29.88,7,3,12,0.01
2013-5-28,79.6,68.9,58.7,59.1,49.7,40.1,94,56,27,29.96,29.91,8,3,13,0.01
2013-5-29,86.6,73.7,58.3,44.9,32.7,17.5,56,27,9,29.94,29.80,5,1,7,0.00
2013-5-30,93.9,78.3,65.2,64.5,39.2,10.6,88,33,8,29.80,29.65,11,4,19,0.00
2013-5-31,89.0,75.2,61.4,58.3,49.7,35.1,80,46,17,29.78,29.70,4,1,11,0.00
2013-6-1,86.9,77.3,68.4,57.2,41.9,30.4,65,30,20,29.85,29.71,8,2,12,0.00
2013-6-2,93.1,82.6,69.6,39.5,29.1,5.3,33,15,7,29.85,29.73,6,2,11,0.00
2013-6-3,87.3,77.8,62.5,63.7,49.9,32.5,90,43,15,29.79,29.67,8,4,16,0.00
2013-6-4,78.1,68.0,60.7,59.8,56.0,45.6,92,69,33,29.93,29.78,6,3,11,0.00
2013-6-5,79.5,68.1,59.4,58.7,54.7,46.6,92,66,33,30.01,29.91,6,2,13,0.01
2013-6-6,84.3,72.8,61.1,55.9,46.6,33.6,66,42,19,30.02,29.95,5,1,15,0.00
2013-6-7,79.3,70.8,62.3,60.0,47.8,37.1,90,47,26,29.96,29.87,8,2,12,0.00
2013-6-8,91.9,77.1,62.0,57.2,38.5,29.3,84,28,11,29.89,29.69,6,1,10,0.00
2013-6-9,81.9,71.9,64.4,64.1,56.0,32.6,90,62,17,29.78,29.63,11,4,17,0.00
2013-6-10,78.2,68.5,62.0,61.2,58.1,49.4,92,72,38,29.83,29.77,7,3,14,0.00
2013-6-11,82.3,71.3,60.5,60.8,57.1,49.1,93,64,36,29.83,29.76,6,2,11,0.00
2013-6-12,89.9,76.6,65.2,63.7,44.1,31.1,88,37,13,29.76,29.66,6,2,13,0.00
2013-6-13,77.4,68.0,62.0,63.4,58.6,54.2,91,74,46,29.79,29.67,7,3,17,0.00
2013-6-14,77.5,67.6,61.2,61.0,58.8,54.5,92,75,49,29.83,29.77,6,3,12,0.00
2013-6-15,76.4,66.9,60.5,60.3,57.3,52.1,93,73,43,29.83,29.78,7,2,14,0.01
2013-6-16,75.6,67.1,60.9,60.6,59.0,56.4,92,76,54,29.82,29.75,6,3,13,0.00
2013-6-17,79.4,69.2,61.6,63.4,60.8,58.5,93,77,51,29.77,29.69,6,2,12,0.00
2013-6-18,82.0,72.4,63.1,65.0,59.8,52.7,92,66,43,29.70,29.62,7,2,14,0.00
2013-6-19,83.8,74.7,65.7,62.9,56.8,51.9,79,56,37,29.67,29.61,6,2,11,0.00
2013-6-20,86.1,75.7,65.0,60.0,54.4,50.0,77,49,35,29.73,29.64,6,2,11,0.00
2013-6-21,86.0,76.7,67.9,57.1,51.6,48.6,57,42,30,29.73,29.69,7,2,11,0.00
2013-6-22,89.7,77.8,67.3,58.0,49.2,43.1,50,37,23,29.73,29.67,5,1,9,0.00
2013-6-23,86.4,76.2,66.6,61.7,53.4,45.5,66,46,28,29.72,29.67,5,1,9,0.00
2013-6-24,84.2,74.9,65.6,61.8,53.2,46.2,74,48,32,29.75,29.68,8,2,12,0.00
2013-6-25,84.6,74.9,64.1,61.5,56.3,47.6,88,54,29,29.75,29.70,7,2,16,0.00
2013-6-26,86.9,77.5,67.6,64.1,53.0,44.1,70,44,25,29.76,29.72,6,2,12,0.00
2013-6-27,86.9,76.3,68.5,64.7,57.2,49.7,81,53,38,29.76,29.70,6,2,10,0.00
2013-6-28,85.5,75.0,63.5,65.6,57.1,33.0,91,57,22,29.72,29.67,6,2,10,0.00
2013-6-29,84.8,73.8,66.5,66.0,64.2,60.1,93,74,50,29.72,29.67,7,3,12,0.00
2013-6-30,82.8,71.8,65.3,64.5,61.9,57.7,93,73,47,29.78,29.70,7,3,16,0.00
2013-7-1,79.1,70.4,64.3,64.1,61.6,58.0,91,75,49,29.79,29.73,7,3,13,0.00
2013-7-2,79.9,69.7,63.7,62.4,60.2,57.5,91,74,48,29.77,29.69,5,2,11,0.00
2013-7-3,83.9,72.8,63.0,65.0,61.7,57.2,91,70,46,29.72,29.66,4,2,8,0.00
2013-7-4,85.4,74.5,64.0,63.7,56.6,48.7,88,57,35,29.73,29.66,5,2,10,0.00
2013-7-5,86.8,75.1,63.5,64.4,56.5,48.2,90,55,32,29.72,29.67,5,2,13,0.00
2013-7-6,86.0,72.9,64.5,64.2,60.6,52.2,92,68,38,29.75,29.68,5,2,10,0.00
2013-7-7,87.3,73.2,63.9,65.0,61.9,52.5,93,72,37,29.82,29.74,6,2,12,0.00
2013-7-8,87.3,73.7,65.0,65.4,62.9,54.8,93,72,36,29.84,29.77,4,2,10,0.00
2013-7-9,82.2,72.2,65.6,64.8,63.2,59.1,92,75,48,29.80,29.68,6,3,14,0.00
2013-7-10,82.1,71.6,65.1,64.9,63.1,59.3,93,76,51,29.68,29.59,6,3,11,0.00
2013-7-11,81.3,72.2,66.4,66.3,64.7,63.5,93,79,58,29.69,29.60,7,3,13,0.00
2013-7-12,83.0,72.3,65.4,66.9,64.6,60.8,94,79,51,29.73,29.67,7,3,12,0.00
2013-7-13,88.2,74.2,65.3,67.4,64.5,60.2,94,75,41,29.71,29.64,4,2,9,0.01
2013-7-14,85.5,74.4,66.5,68.8,66.0,63.9,93,77,51,29.68,29.63,7,2,11,0.00
2013-7-15,88.1,76.0,66.9,66.7,61.8,54.0,92,63,38,29.69,29.63,5,1,10,0.00
2013-7-16,86.7,76.0,67.2,65.9,58.4,50.3,82,56,40,29.72,29.65,5,2,11,0.00
2013-7-17,83.1,72.6,66.1,65.8,63.6,52.5,92,75,51,29.77,29.69,8,3,16,0.00
2013-7-18,80.1,71.0,65.6,64.4,62.3,55.8,94,76,45,29.78,29.71,7,4,15,0.00
2013-7-19,80.0,71.8,66.3,65.8,63.4,58.8,92,77,53,29.76,29.68,6,3,16,0.00
2013-7-20,82.5,72.8,65.8,66.3,64.4,61.6,94,77,50,29.71,29.65,6,2,12,0.00
2013-7-21,81.5,71.8,66.4,66.0,63.6,59.3,94,78,49,29.69,29.64,7,3,11,0.01
2013-7-22,82.2,72.5,65.7,65.6,62.0,49.9,94,72,48,29.67,29.59,6,2,14,0.00
2013-7-23,87.2,75.8,67.8,68.0,56.7,46.0,87,54,32,29.67,29.58,5,2,12,0.00
2013-7-24,87.0,76.6,66.4,67.7,57.0,46.4,91,54,27,29.72,29.66,5,2,12,0.00
2013-7-25,85.2,74.6,66.2,66.6,62.2,53.9,92,67,39,29.71,29.66,6,2,14,0.00
2013-7-26,86.3,75.2,66.6,67.0,62.8,51.4,93,69,33,29.66,29.58,6,2,12,0.00
2013-7-27,84.5,74.2,65.9,65.8,58.7,43.5,92,63,31,29.65,29.55,9,3,14,0.01
2013-7-28,87.4,77.5,66.7,65.9,51.1,40.3,78,42,25,29.73,29.62,6,2,9,0.00
2013-7-29,86.6,76.7,68.0,64.6,57.9,49.9,80,54,29,29.76,29.71,6,2,10,0.00
2013-7-30,84.9,75.0,66.8,66.8,60.9,52.4,89,65,34,29.72,29.64,6,2,12,0.00
2013-7-31,85.3,74.6,66.6,65.0,55.9,45.8,88,54,33,29.66,29.60,6,2,13,0.00
2013-8-1,87.1,76.2,66.2,63.2,50.4,42.2,70,42,25,29.71,29.63,6,2,13,0.00
2013-8-2,88.9,79.0,68.1,64.6,50.8,42.3,68,38,25,29.74,29.68,7,2,14,0.00
2013-8-3,87.4,76.4,68.3,67.2,59.0,46.5,92,57,37,29.75,29.70,7,2,16,0.00
2013-8-4,83.4,73.8,67.6,67.1,65.4,61.3,92,77,52,29.73,29.68,6,3,15,0.00
2013-8-5,87.6,75.9,66.5,68.3,63.9,54.3,92,69,33,29.70,29.64,6,1,9,0.00
2013-8-6,88.0,76.9,65.1,66.7,58.9,42.1,90,58,23,29.68,29.63,6,2,13,0.01
2013-8-7,87.0,75.0,65.9,66.6,53.8,43.0,89,51,25,29.73,29.64,7,2,14,0.00
2013-8-8,86.4,74.9,63.7,65.7,59.4,47.1,90,62,27,29.75,29.70,6,2,14,0.00
2013-8-9,85.3,74.3,65.8,67.2,59.9,48.9,89,63,30,29.71,29.64,6,2,12,0.00
2013-8-10,85.2,74.8,65.2,65.3,59.8,52.7,92,62,33,29.64,29.59,6,2,12,0.00
2013-8-11,85.2,75.1,66.9,65.8,58.7,44.5,93,61,30,29.69,29.61,6,2,12,0.00
2013-8-12,83.7,73.2,66.9,66.5,64.2,56.9,94,76,42,29.75,29.66,6,2,12,0.01
2013-8-13,87.1,73.9,63.6,69.0,65.1,55.0,91,76,44,29.74,29.66,6,1,9,0.01
2013-8-14,91.3,76.6,67.0,70.4,65.9,56.6,92,73,34,29.69,29.59,4,1,12,0.01
2013-8-15,87.1,76.0,69.7,70.0,67.9,63.5,92,78,51,29.67,29.62,6,2,12,0.00
2013-8-16,87.7,76.2,68.4,70.8,67.5,60.9,95,77,42,29.68,29.63,6,2,13,0.01
2013-8-17,89.5,79.0,69.2,68.0,58.0,48.3,79,50,27,29.70,29.64,6,2,12,0.00
2013-8-18,86.6,76.4,68.4,67.9,60.4,50.2,94,62,30,29.72,29.67,6,2,15,0.00
2013-8-19,86.8,74.0,66.4,65.4,63.2,54.5,93,72,36,29.70,29.64,5,2,9,0.01
2013-8-20,88.3,76.1,67.5,70.1,63.6,55.1,89,68,33,29.71,29.66,6,1,14,0.00
2013-8-21,87.0,75.6,67.6,68.0,61.6,47.7,90,65,27,29.74,29.69,6,2,12,0.01
2013-8-22,84.7,75.3,66.0,65.4,55.8,41.7,77,53,23,29.78,29.69,6,2,11,0.00
2013-8-23,84.2,73.9,67.1,67.0,62.3,55.2,93,69,43,29.80,29.73,6,2,11,0.00
2013-8-24,80.8,72.0,67.0,66.4,63.4,55.9,94,77,45,29.81,29.76,6,3,12,0.01
2013-8-25,84.0,73.1,66.4,66.8,64.3,58.4,94,76,44,29.80,29.74,6,2,10,0.01
2013-8-26,85.0,74.4,67.3,66.5,63.4,54.5,93,72,36,29.77,29.69,6,2,13,0.01
2013-8-27,85.0,74.9,66.9,66.2,62.3,50.5,92,67,42,29.75,29.67,4,2,9,0.00
2013-8-28,88.3,77.0,66.6,69.2,61.1,48.8,89,61,35,29.75,29.68,5,1,10,0.00
2013-8-29,89.0,77.9,68.9,68.0,59.9,43.5,79,55,31,29.75,29.70,5,1,13,0.00
2013-8-30,91.4,81.1,72.7,65.0,49.3,36.1,67,35,20,29.74,29.66,5,1,13,0.00
2013-8-31,88.3,76.5,66.4,69.0,61.0,46.2,90,61,32,29.73,29.67,5,1,9,0.00
2013-9-1,86.3,74.4,67.2,68.4,63.9,46.6,92,72,39,29.77,29.68,5,1,12,0.00
2013-9-2,88.3,75.8,66.6,69.1,64.5,59.9,91,70,43,29.82,29.75,5,1,10,0.00
2013-9-3,84.9,74.9,68.9,68.2,66.3,59.3,93,76,48,29.83,29.75,5,2,12,0.00
2013-9-4,80.5,71.8,67.0,66.5,64.6,61.8,94,79,56,29.80,29.71,7,3,14,0.01
2013-9-5,82.7,73.3,67.6,67.2,63.1,49.6,94,73,48,29.76,29.71,5,2,11,0.00
2013-9-6,83.9,73.9,65.9,58.7,52.5,45.1,71,49,27,29.83,29.73,5,2,10,0.00
2013-9-7,80.5,71.8,65.1,63.0,60.2,57.8,87,68,48,29.87,29.81,6,2,12,0.00
2013-9-8,81.5,70.9,64.9,63.8,60.4,54.4,91,72,41,29.87,29.80,6,2,11,0.00
2013-9-9,82.2,71.2,64.4,64.1,62.2,58.9,93,75,47,29.86,29.78,5,1,11,0.01
2013-9-10,84.9,73.1,64.7,64.6,59.8,52.8,92,67,36,29.88,29.82,5,2,7,0.01
2013-9-11,90.2,75.2,65.7,62.1,55.0,40.9,81,53,20,29.85,29.75,5,1,9,0.00
2013-9-12,92.4,76.7,64.9,65.9,58.7,40.6,92,61,17,29.79,29.73,5,1,9,0.00
2013-9-13,93.7,79.3,65.6,69.2,59.9,44.7,82,55,21,29.83,29.77,4,1,6,0.00
2013-9-14,91.7,80.8,70.1,59.3,46.9,35.3,51,33,15,29.85,29.79,4,1,8,0.00
2013-9-15,68.6,67.8,67.1,65.0,64.6,64.1,90,90,87,29.76,29.76,7,4,11,0.00
2013-9-16,80.2,70.0,64.5,64.2,60.3,54.5,93,74,44,29.81,29.75,7,3,14,0.00
2013-9-17,77.2,67.2,62.7,62.1,60.0,55.7,88,78,49,29.81,29.76,4,1,7,0.00
2013-9-18,79.8,72.3,66.2,65.2,59.1,50.7,92,64,48,29.78,29.69,7,3,14,0.00
2013-9-19,87.6,76.1,63.3,64.2,56.5,42.5,93,57,21,29.79,29.70,6,1,12,0.01
2013-9-20,82.3,74.0,67.2,66.7,61.8,47.1,91,69,30,29.87,29.67,8,3,12,0.00
2013-9-21,76.8,69.5,66.3,65.8,63.9,58.3,94,83,57,29.89,29.84,7,3,14,0.21
2013-9-22,77.1,69.1,65.0,64.9,62.4,57.8,94,81,54,29.86,29.80,7,3,16,0.00
2013-9-23,77.1,68.8,63.9,64.2,60.5,53.8,93,77,46,29.81,29.76,7,3,17,0.00
2013-9-24,73.2,66.6,62.8,62.1,59.8,55.8,89,79,56,29.92,29.80,8,4,13,0.00
2013-9-25,74.6,66.4,61.2,58.8,56.1,50.9,86,71,46,30.02,29.92,5,2,8,0.00
2013-9-26,82.4,67.9,57.3,61.6,56.1,46.6,90,70,30,30.02,29.90,4,1,9,0.00
2013-9-27,80.0,68.2,59.3,63.8,60.6,56.7,92,78,53,29.90,29.80,5,1,11,0.01
2013-9-28,76.3,67.1,61.2,61.3,58.0,52.8,91,75,47,29.89,29.81,5,2,11,0.00
2013-9-29,78.7,67.5,59.5,59.9,56.8,51.0,92,71,39,29.89,29.82,5,1,10,0.00
2013-9-30,80.8,68.4,58.0,64.0,58.4,50.4,92,73,36,29.86,29.79,4,1,8,0.01
2013-10-1,82.8,70.6,61.7,65.4,61.1,48.4,95,75,32,29.82,29.70,5,1,11,0.01
2013-10-2,80.2,70.6,58.7,62.8,51.9,34.5,93,57,25,29.80,29.70,6,2,15,0.01
2013-10-3,78.1,69.6,63.5,64.5,58.3,36.8,90,70,29,29.90,29.78,7,4,15,0.00
2013-10-4,72.2,65.3,59.3,61.1,57.2,52.0,92,77,52,29.94,29.88,7,3,16,0.00
2013-10-5,69.9,62.3,57.4,55.4,52.9,50.1,83,72,53,29.94,29.87,7,2,15,0.00
2013-10-6,68.8,60.7,56.2,52.9,49.5,45.6,82,67,49,30.04,29.88,7,2,15,0.00
2013-10-7,69.3,59.9,53.0,46.7,44.0,37.9,72,57,34,30.10,30.02,5,2,11,0.00
2013-10-8,72.8,64.2,52.4,44.3,33.0,28.1,72,34,20,30.12,30.03,9,3,13,0.00
2013-10-9,76.2,68.4,61.0,28.8,25.2,21.9,25,20,16,30.05,29.96,9,4,17,0.00
2013-10-10,83.7,71.6,62.1,47.1,31.2,20.5,50,24,13,30.00,29.94,4,1,8,0.00
2013-10-11,81.9,69.6,60.5,55.7,42.3,31.9,63,39,18,30.03,29.98,5,1,10,0.00
2013-10-12,77.4,66.2,56.1,56.0,46.4,21.9,83,52,16,30.01,29.90,4,1,9,0.00
2013-10-13,77.5,66.0,58.2,62.2,55.0,40.0,92,70,42,29.90,29.80,5,1,10,0.00
2013-10-14,75.9,66.0,56.8,61.1,56.3,45.6,92,73,47,29.95,29.81,6,1,9,0.00
2013-10-15,79.0,66.5,57.5,56.8,47.8,36.3,81,54,27,29.99,29.93,4,1,8,0.00
2013-10-16,80.8,67.2,57.2,61.2,48.8,36.1,91,57,21,29.97,29.84,4,1,8,0.00
2013-10-17,80.5,67.7,56.4,62.2,54.2,37.2,91,65,29,29.86,29.77,5,1,9,0.01
2013-10-18,73.5,67.0,62.2,62.8,51.2,30.9,90,62,27,29.93,29.77,8,4,15,0.00
2013-10-19,71.2,62.7,57.6,59.1,56.2,53.1,91,80,62,30.10,29.92,6,2,10,0.00
2013-10-20,70.8,62.9,53.8,53.0,47.2,37.7,89,59,34,30.14,30.07,6,1,9,0.00
2013-10-21,74.0,66.5,59.4,41.6,37.6,34.6,49,35,27,30.09,29.98,9,3,15,0.00
2013-10-22,80.9,68.9,61.6,48.9,39.9,34.6,52,36,23,29.99,29.88,5,1,14,0.00
2013-10-23,78.1,67.2,57.9,55.0,45.3,37.1,70,47,26,29.95,29.90,4,1,11,0.00
2013-10-24,75.3,64.5,55.3,56.2,45.4,32.3,81,51,30,29.95,29.90,3,1,8,0.00
2013-10-25,73.3,64.1,57.5,52.1,43.0,31.8,69,48,26,29.96,29.90,3,1,7,0.00
2013-10-26,72.0,62.8,54.9,55.6,46.9,30.3,91,61,23,29.96,29.91,4,1,9,0.00
2013-10-27,72.6,62.6,52.8,56.1,49.6,35.0,92,68,26,29.98,29.92,4,1,6,0.01
2013-10-28,73.3,63.0,53.4,55.9,43.5,19.9,94,57,15,30.00,29.93,4,1,8,0.02
2013-10-29,77.1,69.9,62.7,38.9,33.2,24.7,32,26,21,29.93,29.80,8,3,14,0.00
2013-10-30,72.4,67.6,63.7,48.7,43.9,37.5,51,43,33,29.89,29.80,9,4,18,0.00
2013-10-31,70.3,65.2,61.2,50.9,49.2,47.4,66,57,46,29.92,29.86,7,2,10,0.00
2013-11-1,69.4,63.1,57.9,52.0,50.0,46.0,78,63,50,29.95,29.89,6,1,11,0.00
2013-11-2,67.9,62.2,57.7,55.5,50.9,47.8,82,67,50,30.00,29.92,5,1,9,0.00
2013-11-3,70.3,64.3,57.3,52.9,50.6,47.4,82,62,48,30.05,29.98,8,2,16,0.00
2013-11-4,73.0,66.8,60.8,51.2,47.9,44.6,67,51,38,30.07,29.97,8,4,15,0.00
2013-11-5,77.8,66.6,58.6,59.0,52.9,47.3,87,63,39,29.99,29.91,5,1,10,0.00
2013-11-6,77.9,65.6,57.3,59.3,52.4,42.4,91,65,29,29.97,29.85,5,1,9,0.00
2013-11-7,75.7,65.3,56.2,56.9,50.6,35.9,92,63,26,29.87,29.80,5,1,8,0.00
2013-11-8,75.4,67.4,62.2,50.4,46.7,39.9,62,48,32,29.83,29.76,5,1,7,0.00
2013-11-9,72.1,66.0,62.3,49.1,47.0,44.7,58,51,39,29.89,29.82,4,1,8,0.00
2013-11-10,72.5,65.7,60.8,50.7,47.0,43.4,61,51,37,29.94,29.87,5,1,8,0.00
2013-11-11,69.4,65.2,61.0,55.6,52.0,46.8,69,62,55,29.98,29.91,9,3,14,0.00
2013-11-12,68.4,64.1,60.3,56.4,54.3,51.8,84,71,62,29.98,29.91,7,2,12,0.00
2013-11-13,70.6,63.0,57.1,55.9,52.5,46.4,81,69,42,29.96,29.90,3,0,9,0.00
2013-11-14,67.9,58.8,55.8,53.3,51.4,50.3,83,77,55,29.96,29.89,3,0,8,0.00
2013-11-15,72.4,61.8,54.4,58.5,53.6,48.9,93,76,49,29.94,29.86,3,1,8,0.00
2013-11-16,68.9,59.6,52.6,56.4,53.3,49.3,95,81,52,29.99,29.91,4,0,6,0.01
2013-11-17,66.1,58.3,52.6,55.2,52.6,48.4,95,82,53,29.93,29.84,3,1,8,0.01
2013-11-18,62.2,56.9,52.1,53.9,50.4,47.2,93,80,61,29.96,29.86,7,2,11,0.01
2013-11-19,64.5,58.7,54.1,48.1,45.9,42.2,76,63,46,30.02,29.95,8,2,14,0.00
2013-11-20,65.9,58.2,50.6,53.6,49.4,44.6,90,74,50,30.07,29.98,4,1,8,0.00
2013-11-21,68.1,59.0,52.6,54.5,51.3,44.9,93,78,44,30.05,29.96,3,1,7,0.00
2013-11-22,70.8,60.8,50.6,51.3,47.5,36.2,90,64,36,30.00,29.91,4,1,7,0.00
2013-11-23,75.1,64.8,59.2,55.1,44.4,37.1,84,50,26,29.94,29.88,5,1,8,0.00
2013-11-24,66.5,60.3,53.9,54.3,52.1,50.2,90,75,59,29.98,29.92,3,0,6,0.00
2013-11-25,76.5,65.1,52.6,52.3,46.2,40.7,89,53,29,29.96,29.90,3,1,7,0.01
2013-11-26,80.0,72.2,63.5,42.4,38.1,33.7,46,30,22,29.94,29.86,5,1,8,0.00
2013-11-27,85.1,76.7,68.7,47.9,37.9,31.3,37,25,16,29.99,29.90,5,1,8,0.00
2013-11-28,72.8,65.0,56.6,60.0,51.6,42.1,91,64,39,30.03,29.95,4,1,9,0.00
2013-11-29,61.6,56.7,51.7,54.5,51.5,46.1,92,83,67,30.04,29.96,4,2,10,0.00
2013-11-30,64.8,57.5,47.9,49.2,41.2,32.3,88,59,33,30.13,30.03,8,3,13,0.00
2013-12-1,67.3,62.4,58.0,47.6,43.8,34.8,62,51,37,30.14,30.05,9,3,17,0.00
2013-12-2,76.3,65.9,58.5,50.3,46.4,43.2,63,50,33,30.08,29.98,6,1,11,0.00
2013-12-3,80.9,68.1,60.0,60.1,49.8,42.6,90,55,27,29.98,29.81,6,1,11,0.00
2013-12-4,66.0,60.1,55.7,60.1,56.2,53.6,94,87,66,29.88,29.81,6,3,13,0.06
2013-12-5,55.8,52.0,50.1,54.1,50.5,48.7,96,94,88,29.96,29.81,10,4,16,0.98
2013-12-6,55.6,52.6,50.1,52.4,50.0,46.7,96,91,84,30.07,29.95,5,1,8,0.02
2013-12-7,61.2,53.9,48.4,50.2,48.1,45.9,92,81,60,30.08,30.02,5,1,12,0.01
2013-12-8,53.8,52.7,50.1,51.9,50.1,46.7,95,91,79,30.11,30.03,7,3,15,0.25
2013-12-9,54.3,49.1,43.3,49.4,43.9,38.5,92,83,64,30.19,30.10,6,2,13,0.04
2013-12-10,49.8,45.7,39.3,45.8,41.2,36.8,94,84,70,30.17,29.93,6,1,11,0.03
2013-12-11,47.8,44.3,38.0,45.6,42.5,36.7,96,93,83,29.93,29.58,14,8,29,6.20
2013-12-12,39.7,35.9,33.5,38.7,35.0,32.7,97,96,95,29.87,29.70,8,3,16,1.28
2013-12-13,39.9,35.4,33.6,35.7,33.6,32.0,97,93,82,30.01,29.81,12,6,21,1.29
2013-12-14,38.4,35.3,33.1,37.4,34.5,32.3,98,97,96,30.35,29.98,10,3,22,0.72
2013-12-15,45.7,38.2,32.1,38.3,33.9,30.1,98,85,64,30.45,30.35,4,1,6,0.37
2013-12-16,47.2,41.7,35.5,35.4,32.6,28.8,87,70,55,30.40,30.24,6,1,10,0.01
2013-12-17,49.0,44.1,38.3,33.1,28.6,25.5,67,55,45,30.24,30.13,7,1,13,0.00
2013-12-18,52.4,45.6,39.5,37.1,31.6,25.5,85,59,45,30.15,30.07,5,0,8,0.00
2013-12-19,55.5,45.9,38.1,40.2,37.1,33.5,88,73,45,30.26,30.13,4,0,7,0.00
2013-12-20,55.3,49.1,41.9,37.2,34.8,32.9,76,58,46,30.32,30.25,5,1,9,0.00
2013-12-21,56.0,48.6,42.4,35.5,33.1,29.9,70,56,38,30.34,30.27,5,1,8,0.00
2013-12-22,58.2,48.1,39.6,38.3,33.9,28.7,75,59,40,30.34,30.26,3,0,6,0.00
2013-12-23,56.0,50.1,41.8,34.8,27.8,19.0,69,44,29,30.33,30.26,7,2,15,0.00
2013-12-24,55.6,50.5,46.1,25.6,21.9,17.7,39,32,26,30.34,30.23,11,6,16,0.00
2013-12-25,56.5,50.1,45.2,26.7,22.5,18.7,38,34,29,30.26,30.14,7,2,12,0.00
2013-12-26,60.3,51.5,47.6,33.8,28.9,23.6,57,42,32,30.14,30.03,3,0,4,0.00
2013-12-27,61.9,53.8,44.7,42.4,38.2,32.8,66,56,44,30.14,30.04,4,1,11,0.00
2013-12-28,61.5,55.1,50.9,50.6,43.9,40.3,81,66,54,30.05,29.92,5,1,10,0.02
2013-12-29,56.3,50.5,46.0,50.1,44.4,38.5,92,80,68,29.96,29.90,5,1,11,0.00
2013-12-30,54.4,48.5,43.0,45.5,41.2,36.3,92,76,56,29.98,29.92,3,0,5,0.08
2013-12-31,53.0,47.4,42.9,47.4,44.0,41.3,95,88,76,30.11,29.94,2,0,5,0.00
2014-1-1,54.8,47.9,42.4,47.3,44.5,41.1,96,88,72,30.16,30.08,4,0,7,0.01
2014-1-2,56.6,49.7,43.6,46.5,43.0,40.8,95,79,59,30.18,30.09,4,1,7,0.00